sensor_id;sensor_type;location;lat;lon;timestamp;P1;durP1;ratioP1;P2;durP2;ratioP2
61473;SDS011;53694;49.784;30.150;2023-03-13T00:00:51;5.11;;;1.90;;
61473;SDS011;53694;49.784;30.150;2023-03-13T00:01:55;5.59;;;1.94;;
61473;SDS011;53694;49.784;30.150;2023-03-13T00:02:56;4.11;;;1.81;;
61473;SDS011;53694;49.784;30.150;2023-03-13T00:03:58;7.28;;;2.41;;
61473;SDS011;53694;49.784;30.150;2023-03-13T00:05:00;4.34;;;2.04;;
61473;SDS011;53694;49.784;30.150;2023-03-13T00:06:02;4.73;;;1.95;;
61473;SDS011;53694;49.784;30.150;2023-03-13T00:07:04;3.43;;;1.78;;
61473;SDS011;53694;49.784;30.150;2023-03-13T00:08:05;5.05;;;1.73;;
61473;SDS011;53694;49.784;30.150;2023-03-13T00:09:08;5.33;;;1.91;;
61473;SDS011;53694;49.784;30.150;2023-03-13T00:10:11;3.39;;;1.65;;
61473;SDS011;53694;49.784;30.150;2023-03-13T00:11:13;7.76;;;3.39;;
61473;SDS011;53694;49.784;30.150;2023-03-13T00:12:15;5.02;;;1.66;;
61473;SDS011;53694;49.784;30.150;2023-03-13T00:13:17;5.26;;;1.91;;
61473;SDS011;53694;49.784;30.150;2023-03-13T00:14:18;4.95;;;1.89;;
61473;SDS011;53694;49.784;30.150;2023-03-13T00:15:20;3.73;;;1.73;;
61473;SDS011;53694;49.784;30.150;2023-03-13T00:16:22;5.87;;;1.87;;
61473;SDS011;53694;49.784;30.150;2023-03-13T00:17:23;4.78;;;2.00;;
61473;SDS011;53694;49.784;30.150;2023-03-13T00:18:25;4.60;;;1.67;;
61473;SDS011;53694;49.784;30.150;2023-03-13T00:19:26;4.90;;;1.42;;
61473;SDS011;53694;49.784;30.150;2023-03-13T00:20:28;5.32;;;1.63;;
61473;SDS011;53694;49.784;30.150;2023-03-13T00:21:30;5.73;;;1.75;;
61473;SDS011;53694;49.784;30.150;2023-03-13T00:22:31;5.65;;;2.33;;
61473;SDS011;53694;49.784;30.150;2023-03-13T00:23:34;3.98;;;1.76;;
61473;SDS011;53694;49.784;30.150;2023-03-13T00:24:37;4.35;;;1.81;;
61473;SDS011;53694;49.784;30.150;2023-03-13T00:25:39;8.09;;;2.64;;
61473;SDS011;53694;49.784;30.150;2023-03-13T00:26:41;8.58;;;3.23;;
61473;SDS011;53694;49.784;30.150;2023-03-13T00:27:42;8.55;;;3.00;;
61473;SDS011;53694;49.784;30.150;2023-03-13T00:28:44;8.41;;;3.14;;
61473;SDS011;53694;49.784;30.150;2023-03-13T00:29:47;7.49;;;3.04;;
61473;SDS011;53694;49.784;30.150;2023-03-13T00:30:48;8.64;;;3.26;;
61473;SDS011;53694;49.784;30.150;2023-03-13T00:31:50;9.88;;;3.89;;
61473;SDS011;53694;49.784;30.150;2023-03-13T00:32:51;11.02;;;4.17;;
61473;SDS011;53694;49.784;30.150;2023-03-13T00:33:54;13.86;;;4.02;;
61473;SDS011;53694;49.784;30.150;2023-03-13T00:35:01;10.36;;;4.01;;
61473;SDS011;53694;49.784;30.150;2023-03-13T00:36:03;9.61;;;4.05;;
61473;SDS011;53694;49.784;30.150;2023-03-13T00:37:06;10.70;;;4.64;;
61473;SDS011;53694;49.784;30.150;2023-03-13T00:38:08;10.99;;;4.24;;
61473;SDS011;53694;49.784;30.150;2023-03-13T00:39:09;10.37;;;4.19;;
61473;SDS011;53694;49.784;30.150;2023-03-13T00:40:11;9.76;;;3.37;;
61473;SDS011;53694;49.784;30.150;2023-03-13T00:41:17;7.71;;;3.02;;
61473;SDS011;53694;49.784;30.150;2023-03-13T00:42:21;10.32;;;2.92;;
61473;SDS011;53694;49.784;30.150;2023-03-13T00:43:22;6.27;;;2.37;;
61473;SDS011;53694;49.784;30.150;2023-03-13T00:44:24;5.74;;;2.26;;
61473;SDS011;53694;49.784;30.150;2023-03-13T00:45:26;4.44;;;1.82;;
61473;SDS011;53694;49.784;30.150;2023-03-13T00:46:28;5.78;;;2.07;;
61473;SDS011;53694;49.784;30.150;2023-03-13T00:47:30;4.11;;;1.84;;
61473;SDS011;53694;49.784;30.150;2023-03-13T00:48:31;7.50;;;2.21;;
61473;SDS011;53694;49.784;30.150;2023-03-13T00:49:33;6.37;;;2.15;;
61473;SDS011;53694;49.784;30.150;2023-03-13T00:50:35;6.79;;;2.10;;
61473;SDS011;53694;49.784;30.150;2023-03-13T00:51:36;7.31;;;2.38;;
61473;SDS011;53694;49.784;30.150;2023-03-13T00:52:38;5.97;;;2.04;;
61473;SDS011;53694;49.784;30.150;2023-03-13T00:53:39;7.40;;;2.09;;
61473;SDS011;53694;49.784;30.150;2023-03-13T00:54:41;7.66;;;2.19;;
61473;SDS011;53694;49.784;30.150;2023-03-13T00:56:56;7.23;;;2.52;;
61473;SDS011;53694;49.784;30.150;2023-03-13T00:57:58;7.44;;;2.77;;
61473;SDS011;53694;49.784;30.150;2023-03-13T00:59:00;4.81;;;2.61;;
61473;SDS011;53694;49.784;30.150;2023-03-13T01:00:02;9.84;;;2.61;;
61473;SDS011;53694;49.784;30.150;2023-03-13T01:01:24;5.75;;;2.51;;
61473;SDS011;53694;49.784;30.150;2023-03-13T01:02:22;7.06;;;2.95;;
61473;SDS011;53694;49.784;30.150;2023-03-13T01:03:24;7.58;;;2.25;;
61473;SDS011;53694;49.784;30.150;2023-03-13T01:04:25;8.08;;;2.74;;
61473;SDS011;53694;49.784;30.150;2023-03-13T01:05:27;5.46;;;2.02;;
61473;SDS011;53694;49.784;30.150;2023-03-13T01:06:29;5.38;;;1.93;;
61473;SDS011;53694;49.784;30.150;2023-03-13T01:07:32;6.11;;;2.17;;
61473;SDS011;53694;49.784;30.150;2023-03-13T01:08:34;5.07;;;2.03;;
61473;SDS011;53694;49.784;30.150;2023-03-13T01:09:36;5.57;;;2.44;;
61473;SDS011;53694;49.784;30.150;2023-03-13T01:10:38;5.21;;;1.91;;
61473;SDS011;53694;49.784;30.150;2023-03-13T01:11:40;5.77;;;2.30;;
61473;SDS011;53694;49.784;30.150;2023-03-13T01:12:43;5.26;;;2.26;;
61473;SDS011;53694;49.784;30.150;2023-03-13T01:13:44;6.19;;;2.51;;
61473;SDS011;53694;49.784;30.150;2023-03-13T01:14:48;6.80;;;2.81;;
61473;SDS011;53694;49.784;30.150;2023-03-13T01:15:50;6.97;;;2.51;;
61473;SDS011;53694;49.784;30.150;2023-03-13T01:16:52;6.04;;;2.45;;
61473;SDS011;53694;49.784;30.150;2023-03-13T01:17:53;5.82;;;2.52;;
61473;SDS011;53694;49.784;30.150;2023-03-13T01:18:55;7.57;;;2.96;;
61473;SDS011;53694;49.784;30.150;2023-03-13T01:19:59;6.05;;;2.60;;
61473;SDS011;53694;49.784;30.150;2023-03-13T01:21:01;6.59;;;2.75;;
61473;SDS011;53694;49.784;30.150;2023-03-13T01:22:03;5.93;;;2.98;;
61473;SDS011;53694;49.784;30.150;2023-03-13T01:23:04;9.81;;;3.58;;
61473;SDS011;53694;49.784;30.150;2023-03-13T01:24:06;9.11;;;3.64;;
61473;SDS011;53694;49.784;30.150;2023-03-13T01:25:08;10.00;;;4.63;;
61473;SDS011;53694;49.784;30.150;2023-03-13T01:26:10;12.75;;;5.40;;
61473;SDS011;53694;49.784;30.150;2023-03-13T01:27:12;11.69;;;5.91;;
61473;SDS011;53694;49.784;30.150;2023-03-13T01:28:13;9.65;;;4.37;;
61473;SDS011;53694;49.784;30.150;2023-03-13T01:29:15;8.51;;;3.69;;
61473;SDS011;53694;49.784;30.150;2023-03-13T01:30:17;8.51;;;3.45;;
61473;SDS011;53694;49.784;30.150;2023-03-13T01:31:22;7.16;;;3.39;;
61473;SDS011;53694;49.784;30.150;2023-03-13T01:32:31;6.42;;;2.85;;
61473;SDS011;53694;49.784;30.150;2023-03-13T01:33:34;7.77;;;3.30;;
61473;SDS011;53694;49.784;30.150;2023-03-13T01:34:35;8.34;;;3.41;;
61473;SDS011;53694;49.784;30.150;2023-03-13T01:35:37;7.06;;;3.20;;
61473;SDS011;53694;49.784;30.150;2023-03-13T01:36:39;6.69;;;3.10;;
61473;SDS011;53694;49.784;30.150;2023-03-13T01:37:40;6.24;;;2.74;;
61473;SDS011;53694;49.784;30.150;2023-03-13T01:38:41;5.86;;;2.59;;
61473;SDS011;53694;49.784;30.150;2023-03-13T01:39:44;4.83;;;2.17;;
61473;SDS011;53694;49.784;30.150;2023-03-13T01:40:46;4.54;;;2.31;;
61473;SDS011;53694;49.784;30.150;2023-03-13T01:41:48;5.03;;;2.26;;
61473;SDS011;53694;49.784;30.150;2023-03-13T01:42:54;6.07;;;2.22;;
61473;SDS011;53694;49.784;30.150;2023-03-13T01:43:57;5.61;;;2.01;;
61473;SDS011;53694;49.784;30.150;2023-03-13T01:44:59;4.41;;;1.82;;
61473;SDS011;53694;49.784;30.150;2023-03-13T01:47:15;5.47;;;2.22;;
61473;SDS011;53694;49.784;30.150;2023-03-13T01:48:16;5.29;;;2.17;;
61473;SDS011;53694;49.784;30.150;2023-03-13T01:49:22;5.56;;;2.40;;
61473;SDS011;53694;49.784;30.150;2023-03-13T01:50:30;5.49;;;2.35;;
61473;SDS011;53694;49.784;30.150;2023-03-13T01:52:46;7.96;;;2.96;;
61473;SDS011;53694;49.784;30.150;2023-03-13T01:53:49;6.27;;;2.95;;
61473;SDS011;53694;49.784;30.150;2023-03-13T01:54:56;9.41;;;3.94;;
61473;SDS011;53694;49.784;30.150;2023-03-13T01:56:01;6.94;;;3.69;;
61473;SDS011;53694;49.784;30.150;2023-03-13T01:57:16;11.19;;;4.79;;
61473;SDS011;53694;49.784;30.150;2023-03-13T01:58:27;10.48;;;5.11;;
61473;SDS011;53694;49.784;30.150;2023-03-13T01:59:31;11.15;;;4.94;;
61473;SDS011;53694;49.784;30.150;2023-03-13T02:00:44;9.46;;;4.56;;
61473;SDS011;53694;49.784;30.150;2023-03-13T02:01:47;10.90;;;5.05;;
61473;SDS011;53694;49.784;30.150;2023-03-13T02:02:51;12.82;;;4.52;;
61473;SDS011;53694;49.784;30.150;2023-03-13T02:03:56;10.96;;;4.62;;
61473;SDS011;53694;49.784;30.150;2023-03-13T02:04:59;12.22;;;4.70;;
61473;SDS011;53694;49.784;30.150;2023-03-13T02:06:04;8.13;;;3.69;;
61473;SDS011;53694;49.784;30.150;2023-03-13T02:07:11;9.99;;;3.86;;
61473;SDS011;53694;49.784;30.150;2023-03-13T02:08:42;7.62;;;3.08;;
61473;SDS011;53694;49.784;30.150;2023-03-13T02:09:39;9.48;;;2.93;;
61473;SDS011;53694;49.784;30.150;2023-03-13T02:10:48;5.96;;;2.67;;
61473;SDS011;53694;49.784;30.150;2023-03-13T02:13:12;5.14;;;2.49;;
61473;SDS011;53694;49.784;30.150;2023-03-13T02:14:17;6.23;;;2.75;;
61473;SDS011;53694;49.784;30.150;2023-03-13T02:15:21;6.65;;;2.81;;
61473;SDS011;53694;49.784;30.150;2023-03-13T02:16:25;7.16;;;2.88;;
61473;SDS011;53694;49.784;30.150;2023-03-13T02:17:27;5.68;;;2.45;;
61473;SDS011;53694;49.784;30.150;2023-03-13T02:18:30;6.37;;;2.71;;
61473;SDS011;53694;49.784;30.150;2023-03-13T02:19:34;6.31;;;2.87;;
61473;SDS011;53694;49.784;30.150;2023-03-13T02:20:37;8.44;;;3.03;;
61473;SDS011;53694;49.784;30.150;2023-03-13T02:23:09;7.23;;;3.12;;
61473;SDS011;53694;49.784;30.150;2023-03-13T02:26:48;7.93;;;2.91;;
61473;SDS011;53694;49.784;30.150;2023-03-13T02:27:50;6.42;;;2.83;;
61473;SDS011;53694;49.784;30.150;2023-03-13T02:28:54;5.94;;;3.09;;
61473;SDS011;53694;49.784;30.150;2023-03-13T02:29:56;6.36;;;2.93;;
61473;SDS011;53694;49.784;30.150;2023-03-13T02:30:59;6.16;;;2.99;;
61473;SDS011;53694;49.784;30.150;2023-03-13T02:32:01;6.91;;;2.95;;
61473;SDS011;53694;49.784;30.150;2023-03-13T02:33:03;5.42;;;2.46;;
61473;SDS011;53694;49.784;30.150;2023-03-13T02:34:05;6.98;;;2.45;;
61473;SDS011;53694;49.784;30.150;2023-03-13T02:35:08;10.19;;;4.48;;
61473;SDS011;53694;49.784;30.150;2023-03-13T02:36:12;8.71;;;3.37;;
61473;SDS011;53694;49.784;30.150;2023-03-13T02:37:16;6.28;;;2.50;;
61473;SDS011;53694;49.784;30.150;2023-03-13T02:38:21;6.32;;;2.67;;
61473;SDS011;53694;49.784;30.150;2023-03-13T02:39:25;7.19;;;2.63;;
61473;SDS011;53694;49.784;30.150;2023-03-13T02:40:34;6.18;;;2.44;;
61473;SDS011;53694;49.784;30.150;2023-03-13T02:41:37;6.29;;;2.31;;
61473;SDS011;53694;49.784;30.150;2023-03-13T02:42:42;7.85;;;2.41;;
61473;SDS011;53694;49.784;30.150;2023-03-13T02:43:46;6.25;;;2.58;;
61473;SDS011;53694;49.784;30.150;2023-03-13T02:44:47;6.16;;;2.52;;
61473;SDS011;53694;49.784;30.150;2023-03-13T02:46:06;5.71;;;2.58;;
61473;SDS011;53694;49.784;30.150;2023-03-13T02:47:19;5.21;;;1.77;;
61473;SDS011;53694;49.784;30.150;2023-03-13T02:48:29;6.76;;;2.31;;
61473;SDS011;53694;49.784;30.150;2023-03-13T02:49:30;7.22;;;2.22;;
61473;SDS011;53694;49.784;30.150;2023-03-13T02:50:33;6.31;;;2.53;;
61473;SDS011;53694;49.784;30.150;2023-03-13T02:51:38;7.16;;;2.61;;
61473;SDS011;53694;49.784;30.150;2023-03-13T02:52:42;7.26;;;2.78;;
61473;SDS011;53694;49.784;30.150;2023-03-13T02:53:48;6.58;;;2.63;;
61473;SDS011;53694;49.784;30.150;2023-03-13T02:54:56;8.08;;;2.85;;
61473;SDS011;53694;49.784;30.150;2023-03-13T02:55:59;8.01;;;3.00;;
61473;SDS011;53694;49.784;30.150;2023-03-13T02:57:02;7.99;;;2.70;;
61473;SDS011;53694;49.784;30.150;2023-03-13T02:58:04;6.86;;;2.68;;
61473;SDS011;53694;49.784;30.150;2023-03-13T02:59:06;9.47;;;3.55;;
61473;SDS011;53694;49.784;30.150;2023-03-13T03:00:08;11.47;;;3.91;;
61473;SDS011;53694;49.784;30.150;2023-03-13T03:01:11;10.76;;;4.02;;
61473;SDS011;53694;49.784;30.150;2023-03-13T03:02:12;9.58;;;3.34;;
61473;SDS011;53694;49.784;30.150;2023-03-13T03:03:14;11.01;;;3.63;;
61473;SDS011;53694;49.784;30.150;2023-03-13T03:04:15;8.64;;;3.34;;
61473;SDS011;53694;49.784;30.150;2023-03-13T03:05:17;8.04;;;3.13;;
61473;SDS011;53694;49.784;30.150;2023-03-13T03:06:18;6.90;;;2.90;;
61473;SDS011;53694;49.784;30.150;2023-03-13T03:07:20;8.65;;;3.14;;
61473;SDS011;53694;49.784;30.150;2023-03-13T03:08:21;9.56;;;2.91;;
61473;SDS011;53694;49.784;30.150;2023-03-13T03:09:23;6.94;;;2.64;;
61473;SDS011;53694;49.784;30.150;2023-03-13T03:10:25;6.09;;;2.85;;
61473;SDS011;53694;49.784;30.150;2023-03-13T03:11:27;6.09;;;2.11;;
61473;SDS011;53694;49.784;30.150;2023-03-13T03:12:28;6.04;;;2.46;;
61473;SDS011;53694;49.784;30.150;2023-03-13T03:13:30;6.23;;;2.32;;
61473;SDS011;53694;49.784;30.150;2023-03-13T03:14:31;4.74;;;2.10;;
61473;SDS011;53694;49.784;30.150;2023-03-13T03:15:33;6.17;;;2.28;;
61473;SDS011;53694;49.784;30.150;2023-03-13T03:16:35;6.52;;;2.13;;
61473;SDS011;53694;49.784;30.150;2023-03-13T03:17:37;5.23;;;2.28;;
61473;SDS011;53694;49.784;30.150;2023-03-13T03:18:39;7.77;;;2.27;;
61473;SDS011;53694;49.784;30.150;2023-03-13T03:19:41;5.15;;;2.17;;
61473;SDS011;53694;49.784;30.150;2023-03-13T03:20:43;7.04;;;2.19;;
61473;SDS011;53694;49.784;30.150;2023-03-13T03:21:44;6.84;;;2.31;;
61473;SDS011;53694;49.784;30.150;2023-03-13T03:22:46;6.46;;;2.44;;
61473;SDS011;53694;49.784;30.150;2023-03-13T03:23:48;6.39;;;2.52;;
61473;SDS011;53694;49.784;30.150;2023-03-13T03:24:50;5.61;;;2.59;;
61473;SDS011;53694;49.784;30.150;2023-03-13T03:25:51;7.44;;;2.59;;
61473;SDS011;53694;49.784;30.150;2023-03-13T03:26:53;6.66;;;2.46;;
61473;SDS011;53694;49.784;30.150;2023-03-13T03:27:55;6.70;;;2.56;;
61473;SDS011;53694;49.784;30.150;2023-03-13T03:28:56;6.44;;;2.45;;
61473;SDS011;53694;49.784;30.150;2023-03-13T03:29:58;6.05;;;2.45;;
61473;SDS011;53694;49.784;30.150;2023-03-13T03:31:11;5.10;;;2.53;;
61473;SDS011;53694;49.784;30.150;2023-03-13T03:32:08;4.42;;;2.16;;
61473;SDS011;53694;49.784;30.150;2023-03-13T03:33:09;4.79;;;1.91;;
61473;SDS011;53694;49.784;30.150;2023-03-13T03:34:11;5.31;;;2.00;;
61473;SDS011;53694;49.784;30.150;2023-03-13T03:35:12;4.78;;;2.24;;
61473;SDS011;53694;49.784;30.150;2023-03-13T03:36:16;5.47;;;2.27;;
61473;SDS011;53694;49.784;30.150;2023-03-13T03:37:19;4.86;;;2.21;;
61473;SDS011;53694;49.784;30.150;2023-03-13T03:38:21;3.94;;;1.96;;
61473;SDS011;53694;49.784;30.150;2023-03-13T03:39:22;6.72;;;2.74;;
61473;SDS011;53694;49.784;30.150;2023-03-13T03:40:24;4.75;;;2.21;;
61473;SDS011;53694;49.784;30.150;2023-03-13T03:41:25;5.71;;;2.45;;
61473;SDS011;53694;49.784;30.150;2023-03-13T03:42:27;5.40;;;2.35;;
61473;SDS011;53694;49.784;30.150;2023-03-13T03:43:29;6.51;;;2.64;;
61473;SDS011;53694;49.784;30.150;2023-03-13T03:44:30;6.61;;;2.60;;
61473;SDS011;53694;49.784;30.150;2023-03-13T03:45:32;5.42;;;2.47;;
61473;SDS011;53694;49.784;30.150;2023-03-13T03:46:33;5.82;;;2.57;;
61473;SDS011;53694;49.784;30.150;2023-03-13T03:47:35;7.53;;;2.84;;
61473;SDS011;53694;49.784;30.150;2023-03-13T03:48:36;7.19;;;3.05;;
61473;SDS011;53694;49.784;30.150;2023-03-13T03:49:38;7.36;;;3.21;;
61473;SDS011;53694;49.784;30.150;2023-03-13T03:50:40;6.27;;;3.31;;
61473;SDS011;53694;49.784;30.150;2023-03-13T03:51:41;7.40;;;3.53;;
61473;SDS011;53694;49.784;30.150;2023-03-13T03:52:43;5.84;;;2.86;;
61473;SDS011;53694;49.784;30.150;2023-03-13T03:53:44;8.39;;;3.43;;
61473;SDS011;53694;49.784;30.150;2023-03-13T03:54:46;10.06;;;3.70;;
61473;SDS011;53694;49.784;30.150;2023-03-13T03:55:48;9.03;;;3.38;;
61473;SDS011;53694;49.784;30.150;2023-03-13T03:56:50;9.55;;;3.52;;
61473;SDS011;53694;49.784;30.150;2023-03-13T03:57:51;6.16;;;2.81;;
61473;SDS011;53694;49.784;30.150;2023-03-13T03:58:53;7.09;;;2.73;;
61473;SDS011;53694;49.784;30.150;2023-03-13T03:59:54;5.60;;;2.68;;
61473;SDS011;53694;49.784;30.150;2023-03-13T04:01:14;5.77;;;2.71;;
61473;SDS011;53694;49.784;30.150;2023-03-13T04:02:16;9.43;;;3.24;;
61473;SDS011;53694;49.784;30.150;2023-03-13T04:03:17;7.43;;;3.19;;
61473;SDS011;53694;49.784;30.150;2023-03-13T04:04:19;8.32;;;3.51;;
61473;SDS011;53694;49.784;30.150;2023-03-13T04:05:21;8.01;;;4.00;;
61473;SDS011;53694;49.784;30.150;2023-03-13T04:06:24;10.41;;;4.60;;
61473;SDS011;53694;49.784;30.150;2023-03-13T04:07:25;12.64;;;4.85;;
61473;SDS011;53694;49.784;30.150;2023-03-13T04:08:27;10.84;;;4.81;;
61473;SDS011;53694;49.784;30.150;2023-03-13T04:09:28;7.89;;;4.27;;
61473;SDS011;53694;49.784;30.150;2023-03-13T04:10:30;9.93;;;4.49;;
61473;SDS011;53694;49.784;30.150;2023-03-13T04:11:31;11.64;;;5.16;;
61473;SDS011;53694;49.784;30.150;2023-03-13T04:12:33;7.61;;;4.29;;
61473;SDS011;53694;49.784;30.150;2023-03-13T04:13:34;11.58;;;4.93;;
61473;SDS011;53694;49.784;30.150;2023-03-13T04:14:36;12.55;;;5.60;;
61473;SDS011;53694;49.784;30.150;2023-03-13T04:15:38;12.36;;;5.68;;
61473;SDS011;53694;49.784;30.150;2023-03-13T04:16:41;14.09;;;6.00;;
61473;SDS011;53694;49.784;30.150;2023-03-13T04:17:42;12.27;;;5.46;;
61473;SDS011;53694;49.784;30.150;2023-03-13T04:18:44;11.09;;;5.64;;
61473;SDS011;53694;49.784;30.150;2023-03-13T04:19:45;10.30;;;5.16;;
61473;SDS011;53694;49.784;30.150;2023-03-13T04:20:47;9.47;;;5.49;;
61473;SDS011;53694;49.784;30.150;2023-03-13T04:21:48;11.78;;;4.96;;
61473;SDS011;53694;49.784;30.150;2023-03-13T04:22:50;9.39;;;4.24;;
61473;SDS011;53694;49.784;30.150;2023-03-13T04:23:52;9.84;;;3.99;;
61473;SDS011;53694;49.784;30.150;2023-03-13T04:24:53;7.54;;;3.84;;
61473;SDS011;53694;49.784;30.150;2023-03-13T04:25:55;6.63;;;3.58;;
61473;SDS011;53694;49.784;30.150;2023-03-13T04:26:57;6.65;;;3.40;;
61473;SDS011;53694;49.784;30.150;2023-03-13T04:27:58;7.96;;;3.96;;
61473;SDS011;53694;49.784;30.150;2023-03-13T04:29:00;7.85;;;3.56;;
61473;SDS011;53694;49.784;30.150;2023-03-13T04:30:02;7.34;;;3.46;;
61473;SDS011;53694;49.784;30.150;2023-03-13T04:31:04;9.50;;;4.36;;
61473;SDS011;53694;49.784;30.150;2023-03-13T04:32:05;7.35;;;4.04;;
61473;SDS011;53694;49.784;30.150;2023-03-13T04:33:07;10.44;;;5.35;;
61473;SDS011;53694;49.784;30.150;2023-03-13T04:34:09;10.97;;;4.28;;
61473;SDS011;53694;49.784;30.150;2023-03-13T04:35:10;9.71;;;4.62;;
61473;SDS011;53694;49.784;30.150;2023-03-13T04:36:12;9.55;;;4.36;;
61473;SDS011;53694;49.784;30.150;2023-03-13T04:37:14;10.63;;;4.77;;
61473;SDS011;53694;49.784;30.150;2023-03-13T04:38:16;8.96;;;4.71;;
61473;SDS011;53694;49.784;30.150;2023-03-13T04:39:17;10.34;;;4.66;;
61473;SDS011;53694;49.784;30.150;2023-03-13T04:40:19;9.29;;;4.56;;
61473;SDS011;53694;49.784;30.150;2023-03-13T04:41:20;9.62;;;5.04;;
61473;SDS011;53694;49.784;30.150;2023-03-13T04:42:22;9.59;;;5.10;;
61473;SDS011;53694;49.784;30.150;2023-03-13T04:43:24;8.69;;;5.17;;
61473;SDS011;53694;49.784;30.150;2023-03-13T04:44:25;7.84;;;4.48;;
61473;SDS011;53694;49.784;30.150;2023-03-13T04:45:26;7.20;;;3.47;;
61473;SDS011;53694;49.784;30.150;2023-03-13T04:46:28;9.90;;;4.48;;
61473;SDS011;53694;49.784;30.150;2023-03-13T04:47:30;8.11;;;3.90;;
61473;SDS011;53694;49.784;30.150;2023-03-13T04:48:31;9.26;;;4.06;;
61473;SDS011;53694;49.784;30.150;2023-03-13T04:49:33;7.65;;;3.69;;
61473;SDS011;53694;49.784;30.150;2023-03-13T04:50:34;7.91;;;3.27;;
61473;SDS011;53694;49.784;30.150;2023-03-13T04:51:36;7.75;;;3.41;;
61473;SDS011;53694;49.784;30.150;2023-03-13T04:52:37;8.14;;;3.46;;
61473;SDS011;53694;49.784;30.150;2023-03-13T04:53:39;7.92;;;3.62;;
61473;SDS011;53694;49.784;30.150;2023-03-13T04:54:41;8.64;;;3.88;;
61473;SDS011;53694;49.784;30.150;2023-03-13T04:55:42;8.14;;;4.48;;
61473;SDS011;53694;49.784;30.150;2023-03-13T04:56:44;7.90;;;4.05;;
61473;SDS011;53694;49.784;30.150;2023-03-13T04:57:45;10.01;;;4.36;;
61473;SDS011;53694;49.784;30.150;2023-03-13T04:58:47;7.51;;;3.94;;
61473;SDS011;53694;49.784;30.150;2023-03-13T04:59:48;8.81;;;4.49;;
61473;SDS011;53694;49.784;30.150;2023-03-13T05:00:51;13.56;;;4.68;;
61473;SDS011;53694;49.784;30.150;2023-03-13T05:01:53;10.28;;;4.74;;
61473;SDS011;53694;49.784;30.150;2023-03-13T05:02:55;11.04;;;5.41;;
61473;SDS011;53694;49.784;30.150;2023-03-13T05:03:56;9.59;;;4.83;;
61473;SDS011;53694;49.784;30.150;2023-03-13T05:04:58;8.49;;;4.67;;
61473;SDS011;53694;49.784;30.150;2023-03-13T05:05:59;11.86;;;6.02;;
61473;SDS011;53694;49.784;30.150;2023-03-13T05:07:01;10.35;;;4.34;;
61473;SDS011;53694;49.784;30.150;2023-03-13T05:08:02;7.44;;;3.86;;
61473;SDS011;53694;49.784;30.150;2023-03-13T05:09:04;6.26;;;3.19;;
61473;SDS011;53694;49.784;30.150;2023-03-13T05:10:07;8.03;;;3.87;;
61473;SDS011;53694;49.784;30.150;2023-03-13T05:11:09;7.93;;;4.48;;
61473;SDS011;53694;49.784;30.150;2023-03-13T05:12:11;8.41;;;3.48;;
61473;SDS011;53694;49.784;30.150;2023-03-13T05:13:12;8.88;;;3.56;;
61473;SDS011;53694;49.784;30.150;2023-03-13T05:14:14;6.41;;;3.29;;
61473;SDS011;53694;49.784;30.150;2023-03-13T05:15:15;7.64;;;3.77;;
61473;SDS011;53694;49.784;30.150;2023-03-13T05:16:17;8.41;;;3.75;;
61473;SDS011;53694;49.784;30.150;2023-03-13T05:17:18;7.49;;;3.59;;
61473;SDS011;53694;49.784;30.150;2023-03-13T05:18:20;10.12;;;3.78;;
61473;SDS011;53694;49.784;30.150;2023-03-13T05:19:21;8.00;;;4.12;;
61473;SDS011;53694;49.784;30.150;2023-03-13T05:20:23;8.28;;;4.15;;
61473;SDS011;53694;49.784;30.150;2023-03-13T05:21:24;7.97;;;4.31;;
61473;SDS011;53694;49.784;30.150;2023-03-13T05:22:26;13.32;;;4.66;;
61473;SDS011;53694;49.784;30.150;2023-03-13T05:23:27;9.43;;;5.24;;
61473;SDS011;53694;49.784;30.150;2023-03-13T05:24:29;10.24;;;4.49;;
61473;SDS011;53694;49.784;30.150;2023-03-13T05:25:30;9.36;;;4.86;;
61473;SDS011;53694;49.784;30.150;2023-03-13T05:26:32;10.10;;;5.26;;
61473;SDS011;53694;49.784;30.150;2023-03-13T05:27:34;9.50;;;4.70;;
61473;SDS011;53694;49.784;30.150;2023-03-13T05:28:35;9.72;;;5.27;;
61473;SDS011;53694;49.784;30.150;2023-03-13T05:29:37;10.69;;;5.40;;
61473;SDS011;53694;49.784;30.150;2023-03-13T05:30:39;10.25;;;5.55;;
61473;SDS011;53694;49.784;30.150;2023-03-13T05:31:40;12.25;;;5.77;;
61473;SDS011;53694;49.784;30.150;2023-03-13T05:32:42;9.99;;;4.92;;
61473;SDS011;53694;49.784;30.150;2023-03-13T05:33:43;9.02;;;3.59;;
61473;SDS011;53694;49.784;30.150;2023-03-13T05:34:45;9.25;;;3.62;;
61473;SDS011;53694;49.784;30.150;2023-03-13T05:35:46;8.16;;;3.59;;
61473;SDS011;53694;49.784;30.150;2023-03-13T05:36:48;8.27;;;3.51;;
61473;SDS011;53694;49.784;30.150;2023-03-13T05:37:50;11.54;;;4.71;;
61473;SDS011;53694;49.784;30.150;2023-03-13T05:38:51;9.99;;;5.31;;
61473;SDS011;53694;49.784;30.150;2023-03-13T05:39:54;9.28;;;4.13;;
61473;SDS011;53694;49.784;30.150;2023-03-13T05:40:56;9.07;;;4.22;;
61473;SDS011;53694;49.784;30.150;2023-03-13T05:41:57;11.14;;;4.08;;
61473;SDS011;53694;49.784;30.150;2023-03-13T05:42:59;9.94;;;4.54;;
61473;SDS011;53694;49.784;30.150;2023-03-13T05:44:00;7.91;;;4.26;;
61473;SDS011;53694;49.784;30.150;2023-03-13T05:45:02;11.14;;;4.90;;
61473;SDS011;53694;49.784;30.150;2023-03-13T05:46:04;8.02;;;4.57;;
61473;SDS011;53694;49.784;30.150;2023-03-13T05:47:05;13.11;;;4.91;;
61473;SDS011;53694;49.784;30.150;2023-03-13T05:48:07;9.37;;;4.84;;
61473;SDS011;53694;49.784;30.150;2023-03-13T05:49:08;8.18;;;4.42;;
61473;SDS011;53694;49.784;30.150;2023-03-13T05:50:10;9.00;;;4.73;;
61473;SDS011;53694;49.784;30.150;2023-03-13T05:51:12;11.74;;;5.11;;
61473;SDS011;53694;49.784;30.150;2023-03-13T05:52:14;11.54;;;5.05;;
61473;SDS011;53694;49.784;30.150;2023-03-13T05:53:15;9.29;;;5.00;;
61473;SDS011;53694;49.784;30.150;2023-03-13T05:54:17;8.76;;;5.01;;
61473;SDS011;53694;49.784;30.150;2023-03-13T05:55:18;9.87;;;5.20;;
61473;SDS011;53694;49.784;30.150;2023-03-13T05:56:20;9.57;;;5.43;;
61473;SDS011;53694;49.784;30.150;2023-03-13T05:57:22;9.30;;;5.29;;
61473;SDS011;53694;49.784;30.150;2023-03-13T05:58:23;10.81;;;4.39;;
61473;SDS011;53694;49.784;30.150;2023-03-13T05:59:25;8.16;;;3.94;;
61473;SDS011;53694;49.784;30.150;2023-03-13T06:00:26;18.58;;;7.97;;
61473;SDS011;53694;49.784;30.150;2023-03-13T06:01:28;12.67;;;6.09;;
61473;SDS011;53694;49.784;30.150;2023-03-13T06:02:29;7.28;;;3.64;;
61473;SDS011;53694;49.784;30.150;2023-03-13T06:03:31;7.49;;;3.28;;
61473;SDS011;53694;49.784;30.150;2023-03-13T06:04:33;9.29;;;3.24;;
61473;SDS011;53694;49.784;30.150;2023-03-13T06:05:34;8.49;;;3.67;;
61473;SDS011;53694;49.784;30.150;2023-03-13T06:06:36;9.95;;;3.73;;
61473;SDS011;53694;49.784;30.150;2023-03-13T06:07:37;10.46;;;4.33;;
61473;SDS011;53694;49.784;30.150;2023-03-13T06:08:39;9.47;;;4.48;;
61473;SDS011;53694;49.784;30.150;2023-03-13T06:09:41;8.43;;;4.45;;
61473;SDS011;53694;49.784;30.150;2023-03-13T06:10:42;13.16;;;4.64;;
61473;SDS011;53694;49.784;30.150;2023-03-13T06:11:44;8.85;;;4.71;;
61473;SDS011;53694;49.784;30.150;2023-03-13T06:12:52;10.75;;;4.69;;
61473;SDS011;53694;49.784;30.150;2023-03-13T06:13:55;11.06;;;5.20;;
61473;SDS011;53694;49.784;30.150;2023-03-13T06:14:56;10.37;;;5.02;;
61473;SDS011;53694;49.784;30.150;2023-03-13T06:15:58;9.43;;;5.14;;
61473;SDS011;53694;49.784;30.150;2023-03-13T06:17:00;15.25;;;6.05;;
61473;SDS011;53694;49.784;30.150;2023-03-13T06:18:02;8.02;;;5.24;;
61473;SDS011;53694;49.784;30.150;2023-03-13T06:19:03;10.86;;;4.63;;